Poquoson, Virginia
Current Conditions -  °F | °C
As of 5:58 PM on Monday 24 Nov 2014 (Local Time) from KLFI Reporting Station
Scattered Clouds Scattered Clouds  
Wind Chill: 71°   Ceiling: Unl
Heat Index: 71°   Visibility: 10mi
Dew Point: 67°   Wind: 18mph
Humidity: 89%   Direction: 190°S
Pressure: 29.77"   Gusts: 25mph
Location:  37.13°N, 76.37°W
Report Text: KLFI 242258Z AUTO 19016G22KT 10SM SCT100 SCT120 22/20 A2977 RMK AO2 SLP088 T02150197 $
Loading
Personal Weather Stations






























Interactive Weather Map New forecast layout! Learn more

10-Day Weather Forecast

Advertisements
Track Severe Weather on mobile